MAPA DE AEROPUERTO

INFORMACIÓN METAR y TAF

METAR FOR EFHK
ADDS - METARS form results

(1151 UTC 27 November 2021)
Data provider http://aviationweather.gov/metar/data/
 
METAR text: EFHK 271120Z 03008KT CAVOK M08/M09 Q1005 NOSIG
Conditions at: EFHK (HELSINKI/VANTAA , FI) observed 1120 UTC 27 November 2021
Temperature: -8.0°C (18°F)
Dewpoint: -9.0°C (16°F) [RH = 92%]
Pressure (altimeter): 29.68 inches Hg (1005.0 mb)
Winds: from the NNE (30 degrees) at 9 MPH (8 knots; 4.1 m/s)
Visibility: 6 or more miles (10+ km)
Ceiling: ceiling and visibility are OK
Clouds: unknown
Weather: no significant weather observed at this time

Forecast for: EFHK (HELSINKI/VANTAA , FI)
Text: TAF EFHK 271126Z 2712/2812 03009KT 9999 FEW007
Forecast period: 1200 UTC 27 November 2021 to 1200 UTC 28 November 2021
Forecast type: FROM: standard forecast or significant change
Winds: from the NNE (30 degrees) at 10 MPH (9 knots; 4.6 m/s)
Visibility: 6 or more miles (10+ km)
Ceiling: at least 12,000 feet AGL
Clouds: few clouds at 700 feet AGL
Weather: no significant weather forecast for this period
Text: TEMPO 2712/2718 BKN007
Forecast period: 1200 to 1800 UTC 27 November 2021
Forecast type: TEMPORARY: The following changes expected for less than half the time period
Visibility: missing
Ceiling: 700 feet AGL
Clouds: broken clouds at 700 feet AGL
Weather: no significant weather forecast for this period